sensor_id;sensor_type;location;lat;lon;timestamp;temperature;humidity
17859;DHT22;35426;30.698;104.050;2022-10-31T00:00:08;17.60;99.90
17859;DHT22;35426;30.698;104.050;2022-10-31T00:02:46;17.60;99.90
17859;DHT22;35426;30.698;104.050;2022-10-31T00:05:23;17.60;99.90
17859;DHT22;35426;30.698;104.050;2022-10-31T00:07:56;17.70;99.90
17859;DHT22;35426;30.698;104.050;2022-10-31T00:10:30;17.80;99.90
17859;DHT22;35426;30.698;104.050;2022-10-31T00:13:03;17.80;99.90
17859;DHT22;35426;30.698;104.050;2022-10-31T00:15:39;17.90;99.90
17859;DHT22;35426;30.698;104.050;2022-10-31T00:18:13;17.90;99.90
17859;DHT22;35426;30.698;104.050;2022-10-31T00:20:49;18.00;99.90
17859;DHT22;35426;30.698;104.050;2022-10-31T00:23:31;18.10;99.90
17859;DHT22;35426;30.698;104.050;2022-10-31T00:26:04;18.10;99.90
17859;DHT22;35426;30.698;104.050;2022-10-31T00:28:38;18.30;99.90
17859;DHT22;35426;30.698;104.050;2022-10-31T00:31:12;18.30;99.90
17859;DHT22;35426;30.698;104.050;2022-10-31T00:33:47;18.40;99.90
17859;DHT22;35426;30.698;104.050;2022-10-31T00:36:24;18.60;99.90
17859;DHT22;35426;30.698;104.050;2022-10-31T00:38:59;18.80;99.90
17859;DHT22;35426;30.698;104.050;2022-10-31T00:41:33;19.10;99.90
17859;DHT22;35426;30.698;104.050;2022-10-31T00:44:16;19.20;99.90
17859;DHT22;35426;30.698;104.050;2022-10-31T00:46:50;19.40;99.90
17859;DHT22;35426;30.698;104.050;2022-10-31T00:49:24;19.50;99.90
17859;DHT22;35426;30.698;104.050;2022-10-31T00:52:00;19.70;99.90
17859;DHT22;35426;30.698;104.050;2022-10-31T00:54:34;19.80;99.90
17859;DHT22;35426;30.698;104.050;2022-10-31T00:57:08;20.00;99.90
17859;DHT22;35426;30.698;104.050;2022-10-31T00:59:43;20.00;99.90
17859;DHT22;35426;30.698;104.050;2022-10-31T01:02:16;20.00;99.90
17859;DHT22;35426;30.698;104.050;2022-10-31T01:04:51;20.00;99.90
17859;DHT22;35426;30.698;104.050;2022-10-31T01:07:27;20.60;99.90
17859;DHT22;35426;30.698;104.050;2022-10-31T01:10:00;21.00;99.90
17859;DHT22;35426;30.698;104.050;2022-10-31T01:12:37;20.80;99.90
17859;DHT22;35426;30.698;104.050;2022-10-31T01:15:12;20.60;99.90
17859;DHT22;35426;30.698;104.050;2022-10-31T01:17:47;20.70;99.90
17859;DHT22;35426;30.698;104.050;2022-10-31T01:20:21;21.00;99.90
17859;DHT22;35426;30.698;104.050;2022-10-31T01:22:56;20.50;99.90
17859;DHT22;35426;30.698;104.050;2022-10-31T01:25:30;20.50;99.90
17859;DHT22;35426;30.698;104.050;2022-10-31T01:28:04;20.90;99.90
17859;DHT22;35426;30.698;104.050;2022-10-31T01:30:38;21.10;99.90
17859;DHT22;35426;30.698;104.050;2022-10-31T01:33:13;21.20;99.90
17859;DHT22;35426;30.698;104.050;2022-10-31T01:35:47;21.50;99.90
17859;DHT22;35426;30.698;104.050;2022-10-31T01:38:23;21.70;99.90
17859;DHT22;35426;30.698;104.050;2022-10-31T01:40:57;21.70;99.90
17859;DHT22;35426;30.698;104.050;2022-10-31T01:43:47;21.50;99.90
17859;DHT22;35426;30.698;104.050;2022-10-31T01:46:23;21.50;99.90
17859;DHT22;35426;30.698;104.050;2022-10-31T01:49:00;21.60;99.90
17859;DHT22;35426;30.698;104.050;2022-10-31T01:51:36;21.50;99.90
17859;DHT22;35426;30.698;104.050;2022-10-31T01:54:14;21.30;99.90
17859;DHT22;35426;30.698;104.050;2022-10-31T01:56:51;21.50;99.90
17859;DHT22;35426;30.698;104.050;2022-10-31T01:59:29;21.70;99.90
17859;DHT22;35426;30.698;104.050;2022-10-31T02:02:04;22.20;99.90
17859;DHT22;35426;30.698;104.050;2022-10-31T02:04:39;23.30;99.90
17859;DHT22;35426;30.698;104.050;2022-10-31T02:07:16;23.60;99.90
17859;DHT22;35426;30.698;104.050;2022-10-31T02:09:54;24.00;99.90
17859;DHT22;35426;30.698;104.050;2022-10-31T02:12:29;23.80;99.90
17859;DHT22;35426;30.698;104.050;2022-10-31T02:15:05;24.30;99.90
17859;DHT22;35426;30.698;104.050;2022-10-31T02:17:39;24.90;99.90
17859;DHT22;35426;30.698;104.050;2022-10-31T02:20:16;24.70;99.90
17859;DHT22;35426;30.698;104.050;2022-10-31T02:23:23;25.10;99.90
17859;DHT22;35426;30.698;104.050;2022-10-31T02:29:36;26.50;99.90
17859;DHT22;35426;30.698;104.050;2022-10-31T02:32:24;26.90;99.90
17859;DHT22;35426;30.698;104.050;2022-10-31T02:35:06;26.80;99.90
17859;DHT22;35426;30.698;104.050;2022-10-31T02:37:48;26.90;99.90
17859;DHT22;35426;30.698;104.050;2022-10-31T02:40:27;26.70;99.90
17859;DHT22;35426;30.698;104.050;2022-10-31T02:43:35;26.00;99.90
17859;DHT22;35426;30.698;104.050;2022-10-31T02:46:15;26.20;99.90
17859;DHT22;35426;30.698;104.050;2022-10-31T02:48:59;26.70;99.90
17859;DHT22;35426;30.698;104.050;2022-10-31T02:51:34;26.40;99.90
17859;DHT22;35426;30.698;104.050;2022-10-31T02:54:18;26.90;99.90
17859;DHT22;35426;30.698;104.050;2022-10-31T02:56:59;26.80;99.90
17859;DHT22;35426;30.698;104.050;2022-10-31T02:59:35;27.10;99.90
17859;DHT22;35426;30.698;104.050;2022-10-31T03:02:38;26.90;99.90
17859;DHT22;35426;30.698;104.050;2022-10-31T03:05:49;26.60;99.90
17859;DHT22;35426;30.698;104.050;2022-10-31T03:08:30;27.10;99.90
17859;DHT22;35426;30.698;104.050;2022-10-31T03:11:07;27.00;99.90
17859;DHT22;35426;30.698;104.050;2022-10-31T03:13:45;27.10;99.90
17859;DHT22;35426;30.698;104.050;2022-10-31T03:16:25;27.40;99.90
17859;DHT22;35426;30.698;104.050;2022-10-31T03:19:05;27.20;99.90
17859;DHT22;35426;30.698;104.050;2022-10-31T03:21:46;26.70;99.90
17859;DHT22;35426;30.698;104.050;2022-10-31T03:24:24;27.00;99.90
17859;DHT22;35426;30.698;104.050;2022-10-31T03:27:02;26.90;99.90
17859;DHT22;35426;30.698;104.050;2022-10-31T03:29:38;26.20;99.90
17859;DHT22;35426;30.698;104.050;2022-10-31T03:32:16;26.00;99.90
17859;DHT22;35426;30.698;104.050;2022-10-31T03:34:53;26.30;99.90
17859;DHT22;35426;30.698;104.050;2022-10-31T03:37:32;26.20;99.90
17859;DHT22;35426;30.698;104.050;2022-10-31T03:40:13;26.10;99.90
17859;DHT22;35426;30.698;104.050;2022-10-31T03:42:53;26.20;99.90
17859;DHT22;35426;30.698;104.050;2022-10-31T03:45:30;25.70;99.90
17859;DHT22;35426;30.698;104.050;2022-10-31T03:48:05;25.60;99.90
17859;DHT22;35426;30.698;104.050;2022-10-31T03:50:42;25.50;99.90
17859;DHT22;35426;30.698;104.050;2022-10-31T03:53:22;25.20;99.90
17859;DHT22;35426;30.698;104.050;2022-10-31T03:56:02;25.00;99.90
17859;DHT22;35426;30.698;104.050;2022-10-31T03:58:36;24.80;99.90
17859;DHT22;35426;30.698;104.050;2022-10-31T04:01:13;24.70;99.90
17859;DHT22;35426;30.698;104.050;2022-10-31T04:03:49;24.90;99.90
17859;DHT22;35426;30.698;104.050;2022-10-31T04:06:24;24.60;99.90
17859;DHT22;35426;30.698;104.050;2022-10-31T04:09:03;24.60;99.90
17859;DHT22;35426;30.698;104.050;2022-10-31T04:11:43;24.80;99.90
17859;DHT22;35426;30.698;104.050;2022-10-31T04:14:47;24.50;99.90
17859;DHT22;35426;30.698;104.050;2022-10-31T04:17:23;24.20;99.90
17859;DHT22;35426;30.698;104.050;2022-10-31T04:20:00;24.20;99.90
17859;DHT22;35426;30.698;104.050;2022-10-31T04:22:35;24.10;99.90
17859;DHT22;35426;30.698;104.050;2022-10-31T04:25:11;24.00;99.90
17859;DHT22;35426;30.698;104.050;2022-10-31T04:27:45;24.00;99.90
17859;DHT22;35426;30.698;104.050;2022-10-31T04:30:20;23.90;99.90
17859;DHT22;35426;30.698;104.050;2022-10-31T04:32:54;23.70;99.90
17859;DHT22;35426;30.698;104.050;2022-10-31T04:35:28;23.90;99.90
17859;DHT22;35426;30.698;104.050;2022-10-31T04:38:02;23.70;99.90
17859;DHT22;35426;30.698;104.050;2022-10-31T04:40:38;23.80;99.90
17859;DHT22;35426;30.698;104.050;2022-10-31T04:43:31;23.80;99.90
17859;DHT22;35426;30.698;104.050;2022-10-31T04:46:04;23.70;99.90
17859;DHT22;35426;30.698;104.050;2022-10-31T04:48:39;23.50;99.90
17859;DHT22;35426;30.698;104.050;2022-10-31T04:51:13;23.60;99.90
17859;DHT22;35426;30.698;104.050;2022-10-31T04:53:47;23.70;99.90
17859;DHT22;35426;30.698;104.050;2022-10-31T04:56:52;23.80;99.90
17859;DHT22;35426;30.698;104.050;2022-10-31T04:59:26;24.00;99.90
17859;DHT22;35426;30.698;104.050;2022-10-31T05:02:01;24.00;99.90
17859;DHT22;35426;30.698;104.050;2022-10-31T05:04:49;24.00;99.90
17859;DHT22;35426;30.698;104.050;2022-10-31T05:07:24;24.10;99.90
17859;DHT22;35426;30.698;104.050;2022-10-31T05:09:57;24.10;99.90
17859;DHT22;35426;30.698;104.050;2022-10-31T05:12:34;24.10;99.90
17859;DHT22;35426;30.698;104.050;2022-10-31T05:15:09;24.20;99.90
17859;DHT22;35426;30.698;104.050;2022-10-31T05:18:01;24.20;99.90
17859;DHT22;35426;30.698;104.050;2022-10-31T05:20:54;24.00;99.90
17859;DHT22;35426;30.698;104.050;2022-10-31T05:23:36;23.90;99.90
17859;DHT22;35426;30.698;104.050;2022-10-31T05:26:17;23.80;99.90
17859;DHT22;35426;30.698;104.050;2022-10-31T05:28:54;23.80;99.90
17859;DHT22;35426;30.698;104.050;2022-10-31T05:31:28;23.80;99.90
17859;DHT22;35426;30.698;104.050;2022-10-31T05:34:06;23.60;99.90
17859;DHT22;35426;30.698;104.050;2022-10-31T05:36:58;23.40;99.90
17859;DHT22;35426;30.698;104.050;2022-10-31T05:39:31;23.30;99.90
17859;DHT22;35426;30.698;104.050;2022-10-31T05:42:13;23.40;99.90
17859;DHT22;35426;30.698;104.050;2022-10-31T05:44:49;23.30;99.90
17859;DHT22;35426;30.698;104.050;2022-10-31T05:47:35;23.30;99.90
17859;DHT22;35426;30.698;104.050;2022-10-31T05:50:28;23.40;99.90
17859;DHT22;35426;30.698;104.050;2022-10-31T05:53:11;23.60;99.90
17859;DHT22;35426;30.698;104.050;2022-10-31T05:55:46;23.80;99.90
17859;DHT22;35426;30.698;104.050;2022-10-31T05:58:22;23.60;99.90
17859;DHT22;35426;30.698;104.050;2022-10-31T06:01:07;23.50;99.90
17859;DHT22;35426;30.698;104.050;2022-10-31T06:03:41;23.50;99.90
17859;DHT22;35426;30.698;104.050;2022-10-31T06:06:17;23.60;99.90
17859;DHT22;35426;30.698;104.050;2022-10-31T06:08:52;23.80;99.90
17859;DHT22;35426;30.698;104.050;2022-10-31T06:11:27;23.80;99.90
17859;DHT22;35426;30.698;104.050;2022-10-31T06:14:04;23.90;99.90
17859;DHT22;35426;30.698;104.050;2022-10-31T06:16:55;24.00;99.90
17859;DHT22;35426;30.698;104.050;2022-10-31T06:19:47;24.00;99.90
17859;DHT22;35426;30.698;104.050;2022-10-31T06:22:24;24.10;99.90
17859;DHT22;35426;30.698;104.050;2022-10-31T06:24:58;24.10;99.90
17859;DHT22;35426;30.698;104.050;2022-10-31T06:27:36;24.20;99.90
17859;DHT22;35426;30.698;104.050;2022-10-31T06:30:15;24.20;99.90
17859;DHT22;35426;30.698;104.050;2022-10-31T06:32:51;24.30;99.90
17859;DHT22;35426;30.698;104.050;2022-10-31T06:35:26;24.50;99.90
17859;DHT22;35426;30.698;104.050;2022-10-31T06:38:01;24.40;99.90
17859;DHT22;35426;30.698;104.050;2022-10-31T06:40:40;24.50;99.90
17859;DHT22;35426;30.698;104.050;2022-10-31T06:43:26;24.40;99.90
17859;DHT22;35426;30.698;104.050;2022-10-31T06:46:32;24.40;99.90
17859;DHT22;35426;30.698;104.050;2022-10-31T06:49:34;24.40;99.90
17859;DHT22;35426;30.698;104.050;2022-10-31T06:52:14;24.20;99.90
17859;DHT22;35426;30.698;104.050;2022-10-31T06:54:47;23.90;99.90
17859;DHT22;35426;30.698;104.050;2022-10-31T06:57:22;23.90;99.90
17859;DHT22;35426;30.698;104.050;2022-10-31T06:59:57;23.90;99.90
17859;DHT22;35426;30.698;104.050;2022-10-31T07:02:42;23.90;99.90
17859;DHT22;35426;30.698;104.050;2022-10-31T07:05:18;23.70;99.90
17859;DHT22;35426;30.698;104.050;2022-10-31T07:07:54;23.70;99.90
17859;DHT22;35426;30.698;104.050;2022-10-31T07:10:30;23.60;99.90
17859;DHT22;35426;30.698;104.050;2022-10-31T07:13:13;23.70;99.90
17859;DHT22;35426;30.698;104.050;2022-10-31T07:15:55;23.70;99.90
17859;DHT22;35426;30.698;104.050;2022-10-31T07:18:35;23.70;99.90
17859;DHT22;35426;30.698;104.050;2022-10-31T07:21:12;24.10;99.90
17859;DHT22;35426;30.698;104.050;2022-10-31T07:23:49;24.20;99.90
17859;DHT22;35426;30.698;104.050;2022-10-31T07:26:55;24.40;99.90
17859;DHT22;35426;30.698;104.050;2022-10-31T07:29:33;24.50;99.90
17859;DHT22;35426;30.698;104.050;2022-10-31T07:32:09;24.50;99.90
17859;DHT22;35426;30.698;104.050;2022-10-31T07:34:49;24.40;99.90
17859;DHT22;35426;30.698;104.050;2022-10-31T07:37:28;24.20;99.90
17859;DHT22;35426;30.698;104.050;2022-10-31T07:40:02;24.00;99.90
17859;DHT22;35426;30.698;104.050;2022-10-31T07:42:36;24.10;99.90
17859;DHT22;35426;30.698;104.050;2022-10-31T07:45:30;24.10;99.90
17859;DHT22;35426;30.698;104.050;2022-10-31T07:48:27;24.30;99.90
17859;DHT22;35426;30.698;104.050;2022-10-31T07:51:19;24.30;99.90
17859;DHT22;35426;30.698;104.050;2022-10-31T07:54:31;24.40;99.90
17859;DHT22;35426;30.698;104.050;2022-10-31T07:57:05;24.50;99.90
17859;DHT22;35426;30.698;104.050;2022-10-31T07:59:39;24.30;99.90
17859;DHT22;35426;30.698;104.050;2022-10-31T08:02:13;24.20;99.90
17859;DHT22;35426;30.698;104.050;2022-10-31T08:04:50;24.40;99.90
17859;DHT22;35426;30.698;104.050;2022-10-31T08:08:05;24.30;99.90
17859;DHT22;35426;30.698;104.050;2022-10-31T08:10:42;24.40;99.90
17859;DHT22;35426;30.698;104.050;2022-10-31T08:13:16;24.20;99.90
17859;DHT22;35426;30.698;104.050;2022-10-31T08:15:52;24.20;99.90
17859;DHT22;35426;30.698;104.050;2022-10-31T08:18:26;24.20;99.90
17859;DHT22;35426;30.698;104.050;2022-10-31T08:21:01;23.90;99.90
17859;DHT22;35426;30.698;104.050;2022-10-31T08:23:34;23.80;99.90
17859;DHT22;35426;30.698;104.050;2022-10-31T08:26:11;23.60;99.90
17859;DHT22;35426;30.698;104.050;2022-10-31T08:28:46;23.60;99.90
17859;DHT22;35426;30.698;104.050;2022-10-31T08:31:27;23.50;99.90
17859;DHT22;35426;30.698;104.050;2022-10-31T08:34:23;23.50;99.90
17859;DHT22;35426;30.698;104.050;2022-10-31T08:37:15;23.40;99.90
17859;DHT22;35426;30.698;104.050;2022-10-31T08:39:55;23.40;99.90
17859;DHT22;35426;30.698;104.050;2022-10-31T08:42:30;23.30;99.90
17859;DHT22;35426;30.698;104.050;2022-10-31T08:45:05;23.20;99.90
17859;DHT22;35426;30.698;104.050;2022-10-31T08:47:40;23.10;99.90
17859;DHT22;35426;30.698;104.050;2022-10-31T08:50:14;23.00;99.90
17859;DHT22;35426;30.698;104.050;2022-10-31T08:52:49;22.90;99.90
17859;DHT22;35426;30.698;104.050;2022-10-31T08:55:43;22.90;99.90
17859;DHT22;35426;30.698;104.050;2022-10-31T08:58:28;23.00;99.90
17859;DHT22;35426;30.698;104.050;2022-10-31T09:01:10;22.90;99.90
17859;DHT22;35426;30.698;104.050;2022-10-31T09:03:46;22.80;99.90
17859;DHT22;35426;30.698;104.050;2022-10-31T09:06:20;22.80;99.90
17859;DHT22;35426;30.698;104.050;2022-10-31T09:08:55;22.70;99.90
17859;DHT22;35426;30.698;104.050;2022-10-31T09:11:31;22.70;99.90
17859;DHT22;35426;30.698;104.050;2022-10-31T09:14:13;22.60;99.90
17859;DHT22;35426;30.698;104.050;2022-10-31T09:17:09;22.60;99.90
17859;DHT22;35426;30.698;104.050;2022-10-31T09:20:06;22.60;99.90
17859;DHT22;35426;30.698;104.050;2022-10-31T09:22:40;22.50;99.90
17859;DHT22;35426;30.698;104.050;2022-10-31T09:25:14;22.50;99.90
17859;DHT22;35426;30.698;104.050;2022-10-31T09:27:57;22.40;99.90
17859;DHT22;35426;30.698;104.050;2022-10-31T09:30:35;22.40;99.90
17859;DHT22;35426;30.698;104.050;2022-10-31T09:33:10;22.30;99.90
17859;DHT22;35426;30.698;104.050;2022-10-31T09:35:52;22.30;99.90
17859;DHT22;35426;30.698;104.050;2022-10-31T09:38:27;22.30;99.90
17859;DHT22;35426;30.698;104.050;2022-10-31T09:41:07;22.20;99.90
17859;DHT22;35426;30.698;104.050;2022-10-31T09:43:50;22.20;99.90
17859;DHT22;35426;30.698;104.050;2022-10-31T09:46:38;22.10;99.90
17859;DHT22;35426;30.698;104.050;2022-10-31T09:49:35;22.00;99.90
17859;DHT22;35426;30.698;104.050;2022-10-31T09:52:16;22.00;99.90
17859;DHT22;35426;30.698;104.050;2022-10-31T09:54:53;22.00;99.90
17859;DHT22;35426;30.698;104.050;2022-10-31T09:57:30;21.90;99.90
17859;DHT22;35426;30.698;104.050;2022-10-31T10:00:07;21.80;99.90
17859;DHT22;35426;30.698;104.050;2022-10-31T10:02:53;21.80;99.90
17859;DHT22;35426;30.698;104.050;2022-10-31T10:05:34;21.80;99.90
17859;DHT22;35426;30.698;104.050;2022-10-31T10:08:19;21.70;99.90
17859;DHT22;35426;30.698;104.050;2022-10-31T10:11:32;21.60;99.90
17859;DHT22;35426;30.698;104.050;2022-10-31T10:14:25;21.60;99.90
17859;DHT22;35426;30.698;104.050;2022-10-31T10:17:13;21.50;99.90
17859;DHT22;35426;30.698;104.050;2022-10-31T10:20:10;21.50;99.90
17859;DHT22;35426;30.698;104.050;2022-10-31T10:22:55;21.40;99.90
17859;DHT22;35426;30.698;104.050;2022-10-31T10:25:37;21.30;99.90
17859;DHT22;35426;30.698;104.050;2022-10-31T10:28:19;21.30;99.90
17859;DHT22;35426;30.698;104.050;2022-10-31T10:30:57;21.30;99.90
17859;DHT22;35426;30.698;104.050;2022-10-31T10:33:35;21.20;99.90
17859;DHT22;35426;30.698;104.050;2022-10-31T10:36:13;21.20;99.90
17859;DHT22;35426;30.698;104.050;2022-10-31T10:38:51;21.20;99.90
17859;DHT22;35426;30.698;104.050;2022-10-31T10:41:30;21.10;99.90
17859;DHT22;35426;30.698;104.050;2022-10-31T10:44:10;21.10;99.90
17859;DHT22;35426;30.698;104.050;2022-10-31T10:46:47;21.10;99.90
17859;DHT22;35426;30.698;104.050;2022-10-31T10:49:42;21.10;99.90
17859;DHT22;35426;30.698;104.050;2022-10-31T10:52:28;21.00;99.90
17859;DHT22;35426;30.698;104.050;2022-10-31T10:55:19;21.00;99.90
17859;DHT22;35426;30.698;104.050;2022-10-31T10:57:58;21.00;99.90
17859;DHT22;35426;30.698;104.050;2022-10-31T11:00:34;20.90;99.90
17859;DHT22;35426;30.698;104.050;2022-10-31T11:03:08;20.90;99.90
17859;DHT22;35426;30.698;104.050;2022-10-31T11:05:47;20.90;99.90
17859;DHT22;35426;30.698;104.050;2022-10-31T11:08:31;20.90;99.90
17859;DHT22;35426;30.698;104.050;2022-10-31T11:11:07;20.90;99.90
17859;DHT22;35426;30.698;104.050;2022-10-31T11:13:45;20.90;99.90
17859;DHT22;35426;30.698;104.050;2022-10-31T11:16:30;20.80;99.90
17859;DHT22;35426;30.698;104.050;2022-10-31T11:19:19;20.80;99.90
17859;DHT22;35426;30.698;104.050;2022-10-31T11:22:04;20.80;99.90
17859;DHT22;35426;30.698;104.050;2022-10-31T11:24:42;20.80;99.90
17859;DHT22;35426;30.698;104.050;2022-10-31T11:27:21;20.70;99.90
17859;DHT22;35426;30.698;104.050;2022-10-31T11:30:06;20.70;99.90
17859;DHT22;35426;30.698;104.050;2022-10-31T11:32:48;20.70;99.90
17859;DHT22;35426;30.698;104.050;2022-10-31T11:35:24;20.70;99.90
17859;DHT22;35426;30.698;104.050;2022-10-31T11:38:05;20.60;99.90
17859;DHT22;35426;30.698;104.050;2022-10-31T11:40:55;20.60;99.90
17859;DHT22;35426;30.698;104.050;2022-10-31T11:43:31;20.60;99.90
17859;DHT22;35426;30.698;104.050;2022-10-31T11:46:10;20.50;99.90
17859;DHT22;35426;30.698;104.050;2022-10-31T11:48:49;20.50;99.90
17859;DHT22;35426;30.698;104.050;2022-10-31T11:51:26;20.50;99.90
17859;DHT22;35426;30.698;104.050;2022-10-31T11:54:03;20.50;99.90
17859;DHT22;35426;30.698;104.050;2022-10-31T11:56:42;20.50;99.90
17859;DHT22;35426;30.698;104.050;2022-10-31T11:59:23;20.50;99.90
17859;DHT22;35426;30.698;104.050;2022-10-31T12:01:59;20.40;99.90
17859;DHT22;35426;30.698;104.050;2022-10-31T12:04:40;20.40;99.90
17859;DHT22;35426;30.698;104.050;2022-10-31T12:07:16;20.30;99.90
17859;DHT22;35426;30.698;104.050;2022-10-31T12:09:51;20.40;99.90
17859;DHT22;35426;30.698;104.050;2022-10-31T12:12:54;20.30;99.90
17859;DHT22;35426;30.698;104.050;2022-10-31T12:15:33;20.30;99.90
17859;DHT22;35426;30.698;104.050;2022-10-31T12:18:24;20.30;99.90
17859;DHT22;35426;30.698;104.050;2022-10-31T12:21:17;20.20;99.90
17859;DHT22;35426;30.698;104.050;2022-10-31T12:24:01;20.20;99.90
17859;DHT22;35426;30.698;104.050;2022-10-31T12:26:41;20.20;99.90
17859;DHT22;35426;30.698;104.050;2022-10-31T12:29:33;20.10;99.90
17859;DHT22;35426;30.698;104.050;2022-10-31T12:32:21;20.10;99.90
17859;DHT22;35426;30.698;104.050;2022-10-31T12:35:23;20.10;99.90
17859;DHT22;35426;30.698;104.050;2022-10-31T12:41:15;20.10;99.90
17859;DHT22;35426;30.698;104.050;2022-10-31T12:44:00;20.10;99.90
17859;DHT22;35426;30.698;104.050;2022-10-31T12:46:54;20.10;99.90
17859;DHT22;35426;30.698;104.050;2022-10-31T12:49:44;20.00;99.90
17859;DHT22;35426;30.698;104.050;2022-10-31T12:52:39;20.00;99.90
17859;DHT22;35426;30.698;104.050;2022-10-31T12:55:30;19.90;99.90
17859;DHT22;35426;30.698;104.050;2022-10-31T12:58:10;19.90;99.90
17859;DHT22;35426;30.698;104.050;2022-10-31T13:03:46;19.90;99.90
17859;DHT22;35426;30.698;104.050;2022-10-31T13:06:27;19.90;99.90
17859;DHT22;35426;30.698;104.050;2022-10-31T13:09:08;19.90;99.90
17859;DHT22;35426;30.698;104.050;2022-10-31T13:11:47;19.90;99.90
17859;DHT22;35426;30.698;104.050;2022-10-31T13:14:27;19.90;99.90
17859;DHT22;35426;30.698;104.050;2022-10-31T13:17:05;19.90;99.90
17859;DHT22;35426;30.698;104.050;2022-10-31T13:19:44;19.90;99.90
17859;DHT22;35426;30.698;104.050;2022-10-31T13:22:22;19.80;99.90
17859;DHT22;35426;30.698;104.050;2022-10-31T13:25:02;19.80;99.90
17859;DHT22;35426;30.698;104.050;2022-10-31T13:27:44;19.80;99.90
17859;DHT22;35426;30.698;104.050;2022-10-31T13:30:20;19.80;99.90
17859;DHT22;35426;30.698;104.050;2022-10-31T13:32:59;19.70;99.90
17859;DHT22;35426;30.698;104.050;2022-10-31T13:35:40;19.60;99.90
17859;DHT22;35426;30.698;104.050;2022-10-31T13:38:23;19.70;99.90
17859;DHT22;35426;30.698;104.050;2022-10-31T13:41:04;19.60;99.90
17859;DHT22;35426;30.698;104.050;2022-10-31T13:43:56;19.60;99.90
17859;DHT22;35426;30.698;104.050;2022-10-31T13:46:40;19.70;99.90
17859;DHT22;35426;30.698;104.050;2022-10-31T13:49:37;19.60;99.90
17859;DHT22;35426;30.698;104.050;2022-10-31T13:52:24;19.60;99.90
17859;DHT22;35426;30.698;104.050;2022-10-31T13:54:58;19.50;99.90
17859;DHT22;35426;30.698;104.050;2022-10-31T13:57:38;19.60;99.90
17859;DHT22;35426;30.698;104.050;2022-10-31T14:00:25;19.60;99.90
17859;DHT22;35426;30.698;104.050;2022-10-31T14:03:00;19.50;99.90
17859;DHT22;35426;30.698;104.050;2022-10-31T14:05:36;19.60;99.90
17859;DHT22;35426;30.698;104.050;2022-10-31T14:08:20;19.50;99.90
17859;DHT22;35426;30.698;104.050;2022-10-31T14:11:00;19.50;99.90
17859;DHT22;35426;30.698;104.050;2022-10-31T14:13:36;19.50;99.90
17859;DHT22;35426;30.698;104.050;2022-10-31T14:16:20;19.50;99.90
17859;DHT22;35426;30.698;104.050;2022-10-31T14:19:00;19.40;99.90
17859;DHT22;35426;30.698;104.050;2022-10-31T14:21:40;19.40;99.90
17859;DHT22;35426;30.698;104.050;2022-10-31T14:24:33;19.40;99.90
17859;DHT22;35426;30.698;104.050;2022-10-31T14:27:45;19.40;99.90
17859;DHT22;35426;30.698;104.050;2022-10-31T14:30:23;19.40;99.90
17859;DHT22;35426;30.698;104.050;2022-10-31T14:33:00;19.30;99.90
17859;DHT22;35426;30.698;104.050;2022-10-31T14:35:50;19.30;99.90
17859;DHT22;35426;30.698;104.050;2022-10-31T14:38:37;19.20;99.90
17859;DHT22;35426;30.698;104.050;2022-10-31T14:41:30;19.30;99.90
17859;DHT22;35426;30.698;104.050;2022-10-31T14:47:17;19.30;99.90
17859;DHT22;35426;30.698;104.050;2022-10-31T14:50:21;19.20;99.90
17859;DHT22;35426;30.698;104.050;2022-10-31T14:53:00;19.20;99.90
17859;DHT22;35426;30.698;104.050;2022-10-31T14:55:40;19.20;99.90
17859;DHT22;35426;30.698;104.050;2022-10-31T14:58:23;19.20;99.90
17859;DHT22;35426;30.698;104.050;2022-10-31T15:01:00;19.20;99.90
17859;DHT22;35426;30.698;104.050;2022-10-31T15:03:38;19.20;99.90
17859;DHT22;35426;30.698;104.050;2022-10-31T15:06:40;19.10;99.90
17859;DHT22;35426;30.698;104.050;2022-10-31T15:09:26;19.10;99.90
17859;DHT22;35426;30.698;104.050;2022-10-31T15:12:05;19.00;99.90
17859;DHT22;35426;30.698;104.050;2022-10-31T15:14:53;19.00;99.90
17859;DHT22;35426;30.698;104.050;2022-10-31T15:17:29;19.00;99.90
17859;DHT22;35426;30.698;104.050;2022-10-31T15:20:05;19.00;99.90
17859;DHT22;35426;30.698;104.050;2022-10-31T15:22:39;19.00;99.90
17859;DHT22;35426;30.698;104.050;2022-10-31T15:25:19;18.90;99.90
17859;DHT22;35426;30.698;104.050;2022-10-31T15:27:54;18.90;99.90
17859;DHT22;35426;30.698;104.050;2022-10-31T15:30:31;18.90;99.90
17859;DHT22;35426;30.698;104.050;2022-10-31T15:33:21;18.90;99.90
17859;DHT22;35426;30.698;104.050;2022-10-31T15:35:58;18.80;99.90
17859;DHT22;35426;30.698;104.050;2022-10-31T15:38:33;18.90;99.90
17859;DHT22;35426;30.698;104.050;2022-10-31T15:41:33;18.80;99.90
17859;DHT22;35426;30.698;104.050;2022-10-31T15:44:15;18.80;99.90
17859;DHT22;35426;30.698;104.050;2022-10-31T15:47:00;18.80;99.90
17859;DHT22;35426;30.698;104.050;2022-10-31T15:49:38;18.80;99.90
17859;DHT22;35426;30.698;104.050;2022-10-31T15:52:17;18.70;99.90
17859;DHT22;35426;30.698;104.050;2022-10-31T15:54:55;18.80;99.90
17859;DHT22;35426;30.698;104.050;2022-10-31T15:57:31;18.80;99.90
17859;DHT22;35426;30.698;104.050;2022-10-31T16:00:20;18.80;99.90
17859;DHT22;35426;30.698;104.050;2022-10-31T16:03:23;18.70;99.90
17859;DHT22;35426;30.698;104.050;2022-10-31T16:05:59;18.70;99.90
17859;DHT22;35426;30.698;104.050;2022-10-31T16:08:35;18.70;99.90
17859;DHT22;35426;30.698;104.050;2022-10-31T16:11:24;18.70;99.90
17859;DHT22;35426;30.698;104.050;2022-10-31T16:14:04;18.70;99.90
17859;DHT22;35426;30.698;104.050;2022-10-31T16:16:42;18.60;99.90
17859;DHT22;35426;30.698;104.050;2022-10-31T16:19:21;18.60;99.90
17859;DHT22;35426;30.698;104.050;2022-10-31T16:22:02;18.60;99.90
17859;DHT22;35426;30.698;104.050;2022-10-31T16:24:44;18.60;99.90
17859;DHT22;35426;30.698;104.050;2022-10-31T16:27:21;18.60;99.90
17859;DHT22;35426;30.698;104.050;2022-10-31T16:29:59;18.50;99.90
17859;DHT22;35426;30.698;104.050;2022-10-31T16:32:36;18.50;99.90
17859;DHT22;35426;30.698;104.050;2022-10-31T16:35:26;18.50;99.90
17859;DHT22;35426;30.698;104.050;2022-10-31T16:38:02;18.50;99.90